Time;durP1;ratioP1;P1;durP2;ratioP2;P2;SDS_P1;SDS_P2;PMS_P1;PMS_P2;Temp;Humidity;BMP_temperature;BMP_pressure;BME280_temperature;BME280_humidity;BME280_pressure;Samples;Min_cycle;Max_cycle;Signal;HPM_P1;HPM_P2
2021/09/27 00:00:56;;;;;;;20.05;15.07;;;16.40;79.70;;;;;;5016438;28;20116;-86
2021/09/27 00:03:23;;;;;;;24.23;16.48;;;16.40;79.80;;;;;;5016713;28;20058;-87
2021/09/27 00:05:50;;;;;;;19.30;15.32;;;16.40;79.90;;;;;;5016653;28;20456;-86
2021/09/27 00:08:18;;;;;;;21.95;16.17;;;16.40;80.10;;;;;;5012715;28;20091;-86
2021/09/27 00:10:55;;;;;;;20.02;15.60;;;16.40;80.20;;;;;;5015181;28;20041;-87
2021/09/27 00:13:24;;;;;;;20.80;15.77;;;16.40;80.30;;;;;;5013221;28;20572;-87
2021/09/27 00:15:53;;;;;;;22.98;17.02;;;16.40;80.40;;;;;;5013175;28;20502;-86
2021/09/27 00:18:21;;;;;;;23.38;15.98;;;16.40;80.50;;;;;;5013409;28;20049;-87
2021/09/27 00:20:56;;;;;;;23.58;17.10;;;16.40;80.70;;;;;;5016338;28;20111;-87
2021/09/27 00:23:24;;;;;;;26.98;18.67;;;16.40;80.80;;;;;;5013264;28;20498;-87
2021/09/27 00:25:51;;;;;;;25.63;16.15;;;16.40;80.90;;;;;;5013838;28;20042;-87
2021/09/27 00:28:19;;;;;;;23.45;16.85;;;16.40;80.90;;;;;;5015875;28;20058;-87
2021/09/27 00:30:47;;;;;;;21.73;15.38;;;16.40;81.10;;;;;;5015920;28;20096;-87
2021/09/27 00:33:20;;;;;;;22.35;16.50;;;16.40;81.10;;;;;;4996192;28;20140;-87
2021/09/27 00:35:47;;;;;;;24.20;17.02;;;16.40;81.20;;;;;;5013179;28;20510;-87
2021/09/27 00:38:15;;;;;;;27.30;17.35;;;16.40;81.20;;;;;;4996236;28;20108;-86
2021/09/27 00:40:45;;;;;;;21.05;15.40;;;16.40;81.20;;;;;;5026915;28;20699;-88
2021/09/27 00:43:13;;;;;;;24.13;17.55;;;16.50;81.30;;;;;;5015814;28;20518;-88
2021/09/27 00:45:44;;;;;;;24.70;17.48;;;16.40;81.40;;;;;;5016183;28;20050;-86
2021/09/27 00:48:12;;;;;;;25.52;18.50;;;16.50;81.50;;;;;;5016030;28;20050;-88
2021/09/27 00:50:43;;;;;;;21.33;15.48;;;16.40;81.50;;;;;;5013637;28;20050;-87
2021/09/27 00:53:25;;;;;;;29.40;18.67;;;16.40;81.60;;;;;;5016346;28;20099;-87
2021/09/27 00:55:55;;;;;;;21.85;17.40;;;16.40;81.60;;;;;;5031072;28;20053;-87
2021/09/27 00:58:24;;;;;;;27.40;18.13;;;16.50;81.70;;;;;;5016512;28;20084;-87
2021/09/27 01:00:51;;;;;;;26.55;18.08;;;16.50;81.80;;;;;;5019791;28;20050;-87
2021/09/27 01:03:21;;;;;;;19.13;13.95;;;16.50;81.90;;;;;;5019948;28;20081;-87
2021/09/27 01:06:30;;;;;;;24.45;17.63;;;16.40;82.00;;;;;;5019830;28;20056;-87
2021/09/27 01:09:21;;;;;;;24.73;18.20;;;16.40;82.00;;;;;;5019780;28;20045;-86
2021/09/27 01:11:59;;;;;;;25.02;19.45;;;16.40;82.10;;;;;;5019596;28;20049;-88
2021/09/27 01:14:40;;;;;;;26.60;20.05;;;16.50;82.20;;;;;;5016865;28;20050;-88
2021/09/27 01:17:22;;;;;;;24.83;17.90;;;16.50;82.30;;;;;;5015969;28;20580;-87
2021/09/27 01:20:23;;;;;;;22.85;15.88;;;16.40;82.40;;;;;;5030543;28;20057;-88
2021/09/27 01:22:59;;;;;;;23.10;16.10;;;16.40;82.50;;;;;;5014436;28;20099;-87
2021/09/27 01:25:43;;;;;;;23.88;18.35;;;16.50;82.60;;;;;;5018761;28;20045;-88
2021/09/27 01:28:31;;;;;;;29.58;19.45;;;16.50;82.70;;;;;;5016324;28;20466;-88
2021/09/27 01:31:28;;;;;;;25.75;18.50;;;16.50;82.80;;;;;;5016306;28;20502;-87
2021/09/27 01:34:22;;;;;;;27.60;21.65;;;16.50;82.80;;;;;;5016282;28;20050;-87
2021/09/27 01:37:13;;;;;;;34.40;23.45;;;16.50;83.00;;;;;;5016203;28;20470;-88
2021/09/27 01:40:07;;;;;;;31.02;23.17;;;16.60;83.20;;;;;;5019027;28;20470;-87
2021/09/27 01:43:07;;;;;;;26.13;22.75;;;16.60;83.30;;;;;;5018841;28;20053;-88
2021/09/27 01:45:48;;;;;;;25.80;20.63;;;16.60;83.40;;;;;;5018979;28;20057;-88
2021/09/27 01:48:30;;;;;;;35.58;23.95;;;16.60;83.40;;;;;;5018918;28;20489;-87
2021/09/27 01:51:27;;;;;;;27.30;21.45;;;16.70;83.50;;;;;;5019038;28;20464;-87
2021/09/27 01:54:14;;;;;;;30.75;21.20;;;16.60;83.50;;;;;;5019012;28;20053;-87
2021/09/27 01:57:08;;;;;;;29.02;22.13;;;16.60;83.50;;;;;;5017963;28;20041;-87
2021/09/27 01:59:44;;;;;;;26.15;19.13;;;16.70;83.50;;;;;;5015985;28;20054;-87
2021/09/27 02:02:21;;;;;;;28.17;21.85;;;16.70;83.50;;;;;;5015591;28;20410;-88
2021/09/27 02:05:52;;;;;;;28.95;21.67;;;16.80;83.50;;;;;;5029300;28;20049;-87
2021/09/27 02:08:42;;;;;;;31.17;22.25;;;16.80;83.60;;;;;;4936860;29;20051;-88
2021/09/27 02:11:23;;;;;;;33.05;23.63;;;16.80;83.60;;;;;;4951457;29;20054;-88
2021/09/27 02:13:50;;;;;;;34.55;25.00;;;16.80;83.60;;;;;;4949243;29;20152;-88
2021/09/27 02:16:31;;;;;;;29.75;22.70;;;16.80;83.80;;;;;;4947316;29;20102;-87
2021/09/27 02:19:11;;;;;;;34.53;23.30;;;16.80;83.80;;;;;;4942202;29;20083;-86
2021/09/27 02:21:44;;;;;;;33.25;23.10;;;16.80;83.90;;;;;;4940968;29;20056;-88
2021/09/27 02:24:29;;;;;;;32.80;23.50;;;16.80;83.80;;;;;;4939889;29;20051;-85
2021/09/27 02:26:56;;;;;;;43.90;25.58;;;16.80;83.90;;;;;;4947155;29;20084;-89
2021/09/27 02:29:24;;;;;;;35.38;25.45;;;16.80;84.00;;;;;;4950774;29;20574;-87
2021/09/27 02:32:04;;;;;;;32.90;23.25;;;16.80;84.00;;;;;;4949014;29;20106;-88
2021/09/27 02:34:57;;;;;;;36.55;26.52;;;16.80;84.10;;;;;;4950965;29;20055;-86
2021/09/27 02:37:48;;;;;;;32.83;24.25;;;16.80;84.20;;;;;;4937323;29;20051;-86
2021/09/27 02:40:46;;;;;;;37.00;23.70;;;16.80;84.40;;;;;;4939953;29;20105;-88
2021/09/27 02:43:13;;;;;;;40.85;26.48;;;16.90;84.50;;;;;;5001657;28;20096;-87
2021/09/27 02:45:44;;;;;;;38.83;23.63;;;16.90;84.50;;;;;;5018098;28;20123;-88
2021/09/27 02:48:14;;;;;;;34.58;24.85;;;16.80;84.50;;;;;;5000461;28;20423;-86
2021/09/27 02:50:46;;;;;;;41.85;25.50;;;16.80;84.60;;;;;;5017322;28;20053;-86
2021/09/27 02:53:15;;;;;;;38.70;25.73;;;16.80;84.60;;;;;;5014856;28;20042;-89
2021/09/27 02:56:08;;;;;;;39.10;25.63;;;16.80;84.60;;;;;;5028016;28;20042;-87
2021/09/27 02:58:41;;;;;;;36.50;24.93;;;16.90;84.60;;;;;;5016927;28;20108;-85
2021/09/27 03:01:17;;;;;;;36.05;24.15;;;16.80;84.70;;;;;;5017654;28;20057;-86
2021/09/27 03:04:32;;;;;;;35.60;25.85;;;16.80;84.70;;;;;;4997471;28;20129;-86
2021/09/27 03:07:17;;;;;;;36.25;23.35;;;16.90;84.80;;;;;;4930322;29;20060;-86
2021/09/27 03:10:20;;;;;;;42.10;23.77;;;16.90;84.90;;;;;;4931465;28;20055;-87
2021/09/27 03:12:49;;;;;;;38.85;23.90;;;16.90;84.80;;;;;;4931607;29;20584;-88
2021/09/27 03:15:53;;;;;;;37.13;23.70;;;16.90;84.90;;;;;;4930735;29;20457;-87
2021/09/27 03:18:37;;;;;;;29.30;21.10;;;16.90;84.80;;;;;;4931636;29;20051;-86
2021/09/27 03:21:10;;;;;;;30.63;22.15;;;16.90;84.70;;;;;;4931447;29;20118;-88
2021/09/27 03:24:09;;;;;;;29.88;22.33;;;16.90;84.70;;;;;;4931147;29;20465;-87
2021/09/27 03:27:10;;;;;;;31.63;21.25;;;16.90;84.60;;;;;;4855040;29;20054;-89
2021/09/27 03:30:03;;;;;;;32.30;21.63;;;16.90;84.60;;;;;;4854885;29;20050;-86
2021/09/27 03:33:02;;;;;;;29.70;20.70;;;16.90;84.60;;;;;;4842247;29;20050;-86
2021/09/27 03:35:53;;;;;;;30.42;20.15;;;16.90;84.50;;;;;;4855795;29;20507;-88
2021/09/27 03:38:35;;;;;;;31.48;21.40;;;16.90;84.50;;;;;;4856597;29;20054;-85
2021/09/27 03:41:19;;;;;;;26.60;19.70;;;16.80;84.50;;;;;;4856413;29;20050;-87
2021/09/27 03:43:53;;;;;;;33.53;20.48;;;16.80;84.50;;;;;;4894948;29;20466;-88
2021/09/27 03:46:41;;;;;;;;;;;16.80;84.50;;;;;;4919861;29;20048;-86
2021/09/27 03:49:11;;;;;;;29.02;19.77;;;16.80;84.50;;;;;;4920326;29;19930;-88
2021/09/27 03:51:47;;;;;;;26.38;19.00;;;16.80;84.50;;;;;;4920135;29;20469;-86
2021/09/27 03:54:23;;;;;;;25.20;18.90;;;16.80;84.40;;;;;;4920193;29;20143;-87
2021/09/27 03:57:01;;;;;;;29.38;19.35;;;16.80;84.40;;;;;;4920230;29;20055;-87
2021/09/27 03:59:57;;;;;;;31.48;19.63;;;16.80;84.40;;;;;;4918215;29;20102;-87
2021/09/27 04:02:51;;;;;;;30.85;19.67;;;16.70;84.50;;;;;;4968768;28;20050;-88
2021/09/27 04:05:48;;;;;;;31.92;20.15;;;16.70;84.50;;;;;;5013886;28;20092;-87
2021/09/27 04:08:24;;;;;;;27.67;17.92;;;16.60;84.40;;;;;;5013386;28;20422;-86
2021/09/27 04:11:08;;;;;;;23.30;17.92;;;16.60;84.40;;;;;;5011743;28;20053;-88
2021/09/27 04:14:01;;;;;;;31.33;18.40;;;16.70;84.40;;;;;;5015544;28;20058;-86
2021/09/27 04:16:57;;;;;;;26.40;19.00;;;16.60;84.40;;;;;;5015547;28;20293;-88
2021/09/27 04:19:30;;;;;;;26.00;18.77;;;16.60;84.40;;;;;;5015538;28;20104;-87
2021/09/27 04:22:22;;;;;;;27.42;18.60;;;16.60;84.40;;;;;;5016000;28;20473;-86
2021/09/27 04:25:16;;;;;;;27.90;18.65;;;16.60;84.40;;;;;;5016219;28;20058;-88
2021/09/27 04:27:58;;;;;;;28.98;19.17;;;16.60;84.40;;;;;;5015695;28;20050;-87
2021/09/27 04:30:37;;;;;;;26.83;18.77;;;16.60;84.40;;;;;;5016449;28;20050;-87
2021/09/27 04:33:18;;;;;;;29.75;18.75;;;16.50;84.40;;;;;;5016348;28;20144;-88
2021/09/27 04:36:12;;;;;;;27.15;18.75;;;16.50;84.40;;;;;;5015879;28;20041;-87
2021/09/27 04:38:40;;;;;;;26.73;18.67;;;16.50;84.40;;;;;;5013463;28;20049;-87
2021/09/27 04:41:16;;;;;;;27.98;19.00;;;16.50;84.40;;;;;;5012502;28;20046;-86
2021/09/27 04:43:48;;;;;;;26.30;18.05;;;16.50;84.40;;;;;;5026726;28;20080;-85
2021/09/27 04:46:26;;;;;;;29.50;18.20;;;16.50;84.40;;;;;;5013035;28;20045;-86
2021/09/27 04:49:02;;;;;;;30.63;19.52;;;16.50;84.50;;;;;;5013279;28;20049;-88
2021/09/27 04:51:38;;;;;;;27.65;18.05;;;16.40;84.50;;;;;;5014138;28;20104;-86
2021/09/27 04:54:26;;;;;;;31.20;18.17;;;16.40;84.50;;;;;;5019625;28;20095;-88
2021/09/27 04:57:08;;;;;;;29.52;18.58;;;16.40;84.50;;;;;;5017095;28;20497;-88
2021/09/27 04:59:56;;;;;;;28.98;19.08;;;16.50;84.50;;;;;;5009773;28;20445;-87
2021/09/27 05:02:34;;;;;;;25.13;18.38;;;16.40;84.50;;;;;;5012944;28;20046;-87
2021/09/27 05:05:16;;;;;;;26.42;18.20;;;16.40;84.50;;;;;;5028885;28;20049;-86
2021/09/27 05:08:12;;;;;;;26.20;18.48;;;16.40;84.50;;;;;;5009909;28;20522;-87
2021/09/27 05:11:21;;;;;;;25.40;17.48;;;16.40;84.50;;;;;;5022318;28;20046;-86
2021/09/27 05:14:16;;;;;;;20.95;16.10;;;16.40;84.60;;;;;;5027180;28;20096;-88
2021/09/27 05:17:09;;;;;;;36.40;16.75;;;16.40;84.60;;;;;;5027372;28;20045;-87
2021/09/27 05:19:39;;;;;;;24.23;17.08;;;16.40;84.60;;;;;;5026306;28;20387;-86
2021/09/27 05:22:15;;;;;;;24.33;16.40;;;16.40;84.60;;;;;;5026991;28;20131;-87
2021/09/27 05:25:43;;;;;;;27.25;16.70;;;16.40;84.60;;;;;;5027314;28;20050;-85
2021/09/27 05:28:10;;;;;;;24.67;16.77;;;16.40;84.80;;;;;;4969700;28;20105;-85
2021/09/27 05:30:51;;;;;;;23.48;16.50;;;16.30;84.80;;;;;;4964914;28;20058;-87
2021/09/27 05:33:20;;;;;;;23.50;16.58;;;16.40;84.80;;;;;;4968452;28;20050;-86
2021/09/27 05:36:01;;;;;;;25.83;17.25;;;16.40;84.80;;;;;;4969112;28;20050;-86
2021/09/27 05:38:36;;;;;;;30.52;17.40;;;16.40;84.80;;;;;;4970234;28;20038;-86
2021/09/27 05:41:33;;;;;;;24.35;16.52;;;16.40;84.80;;;;;;4972291;28;21058;-85
2021/09/27 05:44:21;;;;;;;27.33;17.75;;;16.40;84.90;;;;;;4970800;28;20050;-86
2021/09/27 05:47:18;;;;;;;26.25;16.92;;;16.40;85.00;;;;;;4969435;28;20072;-84
2021/09/27 05:50:00;;;;;;;27.08;17.83;;;16.40;85.00;;;;;;4969340;28;20424;-86
2021/09/27 05:52:52;;;;;;;25.42;16.63;;;16.40;85.00;;;;;;4972282;28;20122;-84
2021/09/27 05:55:37;;;;;;;24.70;16.13;;;16.40;85.00;;;;;;4973106;28;20139;-84
2021/09/27 05:58:12;;;;;;;22.35;15.98;;;16.40;85.00;;;;;;4972077;28;20157;-85
2021/09/27 06:01:11;;;;;;;25.67;16.88;;;16.40;84.90;;;;;;4972355;28;20515;-85
2021/09/27 06:03:48;;;;;;;24.08;15.48;;;16.40;84.90;;;;;;4996412;28;20084;-85
2021/09/27 06:06:26;;;;;;;24.42;16.00;;;16.40;85.00;;;;;;5030304;28;20050;-85
2021/09/27 06:09:09;;;;;;;24.23;15.32;;;16.40;85.00;;;;;;5030272;28;20180;-87
2021/09/27 06:11:59;;;;;;;21.50;15.02;;;16.40;84.90;;;;;;5031826;28;20050;-84
2021/09/27 06:14:27;;;;;;;23.20;16.10;;;16.40;84.90;;;;;;5017695;28;20107;-86
2021/09/27 06:17:54;;;;;;;26.75;15.65;;;16.40;84.90;;;;;;5031929;28;20480;-83
2021/09/27 06:20:27;;;;;;;19.13;14.27;;;16.40;84.90;;;;;;5015668;28;20046;-85
2021/09/27 06:23:25;;;;;;;24.17;14.82;;;16.40;85.00;;;;;;5032763;28;20049;-85
2021/09/27 06:26:14;;;;;;;24.00;14.93;;;16.40;85.00;;;;;;5029227;28;20049;-85
2021/09/27 06:29:00;;;;;;;23.35;13.95;;;16.40;84.90;;;;;;5029950;28;20054;-85
2021/09/27 06:32:00;;;;;;;18.75;13.73;;;16.40;85.00;;;;;;5031694;28;20117;-86
2021/09/27 06:34:51;;;;;;;19.83;13.98;;;16.40;85.00;;;;;;5032118;28;20136;-85
2021/09/27 06:37:21;;;;;;;17.73;13.20;;;16.40;85.00;;;;;;5032804;28;20045;-85
2021/09/27 06:39:49;;;;;;;24.98;14.23;;;16.40;85.00;;;;;;5028997;28;20103;-85
2021/09/27 06:42:16;;;;;;;20.40;13.75;;;16.50;85.00;;;;;;5029110;28;20461;-85
2021/09/27 06:44:45;;;;;;;18.15;12.60;;;16.50;85.00;;;;;;5029821;28;20072;-86
2021/09/27 06:47:14;;;;;;;20.85;12.10;;;16.50;85.00;;;;;;5013628;28;20042;-84
2021/09/27 06:49:41;;;;;;;21.48;11.45;;;16.50;84.90;;;;;;5029335;28;20403;-85
2021/09/27 06:52:08;;;;;;;18.25;12.25;;;16.50;84.90;;;;;;5028303;28;20053;-85
2021/09/27 06:54:35;;;;;;;20.15;11.57;;;16.50;85.00;;;;;;5029049;28;20493;-84
2021/09/27 06:57:02;;;;;;;19.75;11.00;;;16.50;84.90;;;;;;5029151;28;20092;-85
2021/09/27 06:59:29;;;;;;;17.02;11.32;;;16.60;84.90;;;;;;5029447;28;20103;-87
2021/09/27 07:02:17;;;;;;;17.80;11.43;;;16.60;85.00;;;;;;5015834;28;20037;-89
2021/09/27 07:04:45;;;;;;;15.10;10.80;;;16.60;85.00;;;;;;5032854;28;20045;-88
2021/09/27 07:07:12;;;;;;;16.52;10.50;;;16.60;85.10;;;;;;5028845;28;20049;-87
2021/09/27 07:09:39;;;;;;;19.80;11.45;;;16.60;85.20;;;;;;5028561;28;20046;-87
2021/09/27 07:12:06;;;;;;;15.68;11.35;;;16.60;85.30;;;;;;5026280;28;20037;-87
2021/09/27 07:14:33;;;;;;;15.52;10.60;;;16.60;85.20;;;;;;5015880;28;20054;-88
2021/09/27 07:17:00;;;;;;;15.70;10.35;;;16.60;85.20;;;;;;5030061;28;20107;-87
2021/09/27 07:19:27;;;;;;;18.27;11.40;;;16.60;85.20;;;;;;5031301;28;20049;-86
2021/09/27 07:21:54;;;;;;;14.70;10.55;;;16.60;85.20;;;;;;5028571;28;20571;-88
2021/09/27 07:24:24;;;;;;;15.18;10.68;;;16.70;85.20;;;;;;5028527;28;20049;-90
2021/09/27 07:26:51;;;;;;;14.90;10.38;;;16.60;85.20;;;;;;5028614;28;20501;-88
2021/09/27 07:29:18;;;;;;;14.88;9.82;;;16.70;85.30;;;;;;5029865;28;20057;-87
2021/09/27 07:31:45;;;;;;;15.05;10.20;;;16.60;85.30;;;;;;5031542;28;20457;-88
2021/09/27 07:34:12;;;;;;;17.85;10.80;;;16.60;85.30;;;;;;5028446;28;20112;-87
2021/09/27 07:36:39;;;;;;;15.93;10.55;;;16.60;85.40;;;;;;5028543;28;20053;-90
2021/09/27 07:39:06;;;;;;;16.50;10.10;;;16.70;85.40;;;;;;5028282;28;20502;-89
2021/09/27 07:41:34;;;;;;;15.93;10.65;;;16.60;85.40;;;;;;5028921;28;20446;-88
2021/09/27 07:44:01;;;;;;;14.95;10.48;;;16.70;85.30;;;;;;5029772;28;20103;-88
2021/09/27 07:46:28;;;;;;;21.23;10.70;;;16.70;85.30;;;;;;5030589;28;20572;-88
2021/09/27 07:48:55;;;;;;;16.10;10.10;;;16.70;85.30;;;;;;5028578;28;20049;-92
2021/09/27 07:51:23;;;;;;;17.25;10.10;;;16.70;85.30;;;;;;5010804;28;20049;-89
2021/09/27 07:53:50;;;;;;;15.80;10.98;;;16.60;85.30;;;;;;5027995;28;20049;-90
2021/09/27 07:56:17;;;;;;;18.40;11.27;;;16.70;85.40;;;;;;5030774;28;20457;-93
2021/09/27 07:58:45;;;;;;;15.77;10.80;;;16.60;85.40;;;;;;5031458;28;20057;-93
2021/09/27 08:01:13;;;;;;;18.17;10.65;;;16.60;85.50;;;;;;5027292;28;20045;-92
2021/09/27 08:03:41;;;;;;;16.48;9.68;;;16.60;85.50;;;;;;5028326;28;20053;-88
2021/09/27 08:06:08;;;;;;;20.42;9.68;;;16.60;85.60;;;;;;5012716;28;20461;-90
2021/09/27 08:08:35;;;;;;;13.18;8.90;;;16.60;85.60;;;;;;5028372;28;20099;-91
2021/09/27 08:11:02;;;;;;;17.67;9.45;;;16.60;85.60;;;;;;5029766;28;20163;-91
2021/09/27 08:13:29;;;;;;;12.40;9.07;;;16.60;85.60;;;;;;5030510;28;20069;-91
2021/09/27 08:15:56;;;;;;;15.90;10.32;;;16.60;85.70;;;;;;5030238;28;20103;-90
2021/09/27 08:18:23;;;;;;;20.55;9.82;;;16.60;85.80;;;;;;5027979;28;20520;-90
2021/09/27 08:20:55;;;;;;;16.25;9.43;;;16.60;85.80;;;;;;5027928;28;20099;-89
2021/09/27 08:23:24;;;;;;;16.70;9.50;;;16.60;85.90;;;;;;5027986;28;20092;-89
2021/09/27 08:25:53;;;;;;;14.75;9.43;;;16.60;86.00;;;;;;5030166;28;20099;-92
2021/09/27 08:28:22;;;;;;;14.48;9.13;;;16.60;85.90;;;;;;5029079;28;20054;-89
2021/09/27 08:30:52;;;;;;;16.63;9.73;;;16.60;85.90;;;;;;5027386;28;20107;-89
2021/09/27 08:33:21;;;;;;;17.25;10.07;;;16.70;86.00;;;;;;5029553;28;20050;-90
2021/09/27 08:35:52;;;;;;;16.77;9.82;;;16.80;86.10;;;;;;5027918;28;20107;-92
2021/09/27 08:38:21;;;;;;;14.05;9.48;;;16.80;86.10;;;;;;5030109;28;20057;-89
2021/09/27 08:41:04;;;;;;;18.27;8.85;;;16.80;85.90;;;;;;5031448;28;20053;-91
2021/09/27 08:43:47;;;;;;;14.47;9.60;;;16.80;85.90;;;;;;5030573;28;20083;-89
2021/09/27 08:46:23;;;;;;;14.75;8.55;;;16.80;85.90;;;;;;5028599;28;20288;-90
2021/09/27 08:49:09;;;;;;;17.73;8.27;;;16.80;85.90;;;;;;5029153;28;20076;-88
2021/09/27 08:51:37;;;;;;;18.10;8.60;;;16.80;85.90;;;;;;5011455;28;20049;-88
2021/09/27 08:54:11;;;;;;;15.45;8.85;;;16.90;85.80;;;;;;5026770;28;20084;-89
2021/09/27 08:56:45;;;;;;;12.15;8.05;;;16.90;85.80;;;;;;5027299;28;20464;-87
2021/09/27 08:59:29;;;;;;;11.77;7.95;;;16.90;85.80;;;;;;4994724;28;20198;-88
2021/09/27 09:02:12;;;;;;;13.90;8.80;;;16.90;85.70;;;;;;5027832;28;20057;-87
2021/09/27 09:04:45;;;;;;;13.43;7.60;;;16.90;85.70;;;;;;5031674;28;20049;-89
2021/09/27 09:07:19;;;;;;;10.30;7.60;;;16.90;85.70;;;;;;5027059;28;20280;-90
2021/09/27 09:09:57;;;;;;;;;;;16.90;85.70;;;;;;5013128;28;20053;-92
2021/09/27 09:12:35;;;;;;;12.90;7.53;;;16.90;85.60;;;;;;5024480;28;19921;-91
2021/09/27 09:15:20;;;;;;;10.75;7.22;;;16.90;85.70;;;;;;5032295;28;20095;-93
2021/09/27 09:17:53;;;;;;;12.98;7.38;;;16.90;85.70;;;;;;5032823;28;20037;-94
2021/09/27 09:20:37;;;;;;;13.43;6.83;;;16.90;85.70;;;;;;5032542;28;20057;-92
2021/09/27 09:23:05;;;;;;;12.38;6.32;;;16.90;85.90;;;;;;5034715;28;20053;-93
2021/09/27 09:25:35;;;;;;;11.40;6.90;;;16.80;85.90;;;;;;5037686;28;20051;-94
2021/09/27 09:28:06;;;;;;;9.07;6.40;;;16.80;86.00;;;;;;5038359;28;20057;-96
2021/09/27 09:30:39;;;;;;;12.18;6.88;;;16.80;86.00;;;;;;5040815;28;20052;-95
2021/09/27 09:33:06;;;;;;;18.73;6.70;;;16.80;86.00;;;;;;5050418;28;20050;-94
2021/09/27 09:35:34;;;;;;;9.50;6.18;;;16.80;86.10;;;;;;5089458;23;20054;-94
2021/09/27 09:38:04;;;;;;;10.35;5.88;;;16.80;86.10;;;;;;5029135;28;20068;-94
2021/09/27 09:40:36;;;;;;;10.13;5.70;;;16.80;86.20;;;;;;5012904;28;20050;-95
2021/09/27 09:43:10;;;;;;;12.80;5.80;;;16.80;86.30;;;;;;5006092;28;20077;-94
2021/09/27 09:45:41;;;;;;;8.55;5.18;;;16.70;86.30;;;;;;5009333;28;20050;-94
2021/09/27 09:48:22;;;;;;;10.77;5.18;;;16.80;86.30;;;;;;5016812;28;20050;-95
2021/09/27 09:50:53;;;;;;;9.40;4.47;;;16.80;86.30;;;;;;5019865;28;20043;-93
2021/09/27 09:53:30;;;;;;;9.65;3.75;;;16.80;86.40;;;;;;5012518;28;20407;-92
2021/09/27 09:56:02;;;;;;;10.52;3.65;;;16.80;86.40;;;;;;4995026;28;20062;-90
2021/09/27 09:58:49;;;;;;;7.20;3.78;;;16.80;86.50;;;;;;4999630;28;20042;-91
2021/09/27 10:01:27;;;;;;;8.30;3.40;;;16.70;86.60;;;;;;4999240;28;20050;-94
2021/09/27 10:04:06;;;;;;;9.18;3.75;;;16.70;86.60;;;;;;5003373;28;20499;-93
2021/09/27 10:06:35;;;;;;;5.88;3.22;;;16.70;86.60;;;;;;5003403;28;20054;-93
2021/09/27 10:09:08;;;;;;;8.57;3.42;;;16.70;86.70;;;;;;5015519;28;20116;-94
2021/09/27 10:11:42;;;;;;;6.28;3.03;;;16.80;86.70;;;;;;5011521;28;20050;-95
2021/09/27 10:14:20;;;;;;;8.57;3.47;;;16.70;86.80;;;;;;4996807;28;20050;-90
2021/09/27 10:16:54;;;;;;;5.40;3.17;;;16.70;86.90;;;;;;5010106;28;20046;-92
2021/09/27 10:19:23;;;;;;;;;;;16.70;87.10;;;;;;5008962;28;20050;-93
2021/09/27 10:22:00;;;;;;;5.70;3.15;;;16.70;87.30;;;;;;5001319;28;20338;-88
2021/09/27 10:24:48;;;;;;;6.10;3.28;;;16.80;87.40;;;;;;4997994;28;20116;-92
2021/09/27 10:27:37;;;;;;;8.60;3.42;;;16.80;87.30;;;;;;4998362;28;20050;-88
2021/09/27 10:30:14;;;;;;;6.32;3.28;;;16.80;87.00;;;;;;4997821;28;20046;-90
2021/09/27 10:32:46;;;;;;;5.85;3.17;;;16.90;87.00;;;;;;4997359;28;20100;-90
2021/09/27 10:36:03;;;;;;;5.90;3.53;;;16.90;87.00;;;;;;4992500;28;20073;-90
2021/09/27 10:38:45;;;;;;;8.77;3.88;;;16.90;86.90;;;;;;4911676;29;20052;-92
2021/09/27 10:41:27;;;;;;;8.35;3.45;;;16.90;86.80;;;;;;4918864;29;20044;-90
2021/09/27 10:43:59;;;;;;;7.10;3.65;;;16.90;86.80;;;;;;4925538;29;20103;-93
2021/09/27 10:46:33;;;;;;;7.72;3.47;;;16.90;86.80;;;;;;4919864;29;20048;-92
2021/09/27 10:49:04;;;;;;;6.03;3.90;;;17.00;86.80;;;;;;4914429;29;20442;-93
2021/09/27 10:51:35;;;;;;;11.43;3.97;;;16.90;86.80;;;;;;4917410;29;20096;-92
2021/09/27 10:54:44;;;;;;;10.95;3.83;;;17.00;86.80;;;;;;4913959;29;20107;-89
2021/09/27 10:57:22;;;;;;;8.43;3.90;;;17.00;86.80;;;;;;4874752;29;20515;-90
2021/09/27 10:59:59;;;;;;;6.93;4.10;;;17.00;86.80;;;;;;4874984;29;20049;-89
2021/09/27 11:02:40;;;;;;;5.88;3.63;;;17.00;86.70;;;;;;4875588;29;20055;-91
2021/09/27 11:05:31;;;;;;;6.60;3.90;;;17.00;86.70;;;;;;4874845;29;20161;-90
2021/09/27 11:08:08;;;;;;;7.65;3.22;;;17.00;86.70;;;;;;4874605;29;20053;-89
2021/09/27 11:10:47;;;;;;;5.65;3.63;;;17.00;86.70;;;;;;4951943;29;20459;-93
2021/09/27 11:13:49;;;;;;;9.15;4.25;;;17.00;86.60;;;;;;4945928;29;20051;-94
2021/09/27 11:16:32;;;;;;;7.65;2.63;;;17.00;86.50;;;;;;4914343;29;20048;-92
2021/09/27 11:19:26;;;;;;;8.45;2.05;;;17.00;86.30;;;;;;4916647;29;20060;-93
2021/09/27 11:21:53;;;;;;;8.93;1.30;;;16.90;84.90;;;;;;4913842;29;20048;-91
2021/09/27 11:24:20;;;;;;;5.28;1.10;;;16.90;84.10;;;;;;4908477;29;20063;-94
2021/09/27 11:27:26;;;;;;;6.55;1.17;;;16.80;82.80;;;;;;4910082;29;20108;-90
2021/09/27 11:30:18;;;;;;;8.82;1.73;;;16.60;81.70;;;;;;4914275;29;20493;-91
2021/09/27 11:32:56;;;;;;;6.25;1.10;;;16.50;82.20;;;;;;4932432;29;20051;-92
2021/09/27 11:35:35;;;;;;;8.10;1.50;;;16.40;82.10;;;;;;4917656;29;20059;-93
2021/09/27 11:38:29;;;;;;;12.85;1.55;;;16.40;82.30;;;;;;4932184;29;20052;-92
2021/09/27 11:41:11;;;;;;;13.95;1.75;;;16.20;82.50;;;;;;4916507;29;20052;-91
2021/09/27 11:44:09;;;;;;;10.60;2.10;;;16.20;82.70;;;;;;4932058;29;20108;-93
2021/09/27 11:46:44;;;;;;;15.02;1.92;;;16.10;83.00;;;;;;4934014;29;20051;-92
2021/09/27 11:49:37;;;;;;;10.85;1.98;;;16.10;83.20;;;;;;4934266;28;20052;-95
2021/09/27 11:52:25;;;;;;;16.20;2.53;;;16.00;83.30;;;;;;5007428;28;20046;-93
2021/09/27 11:55:00;;;;;;;12.57;2.15;;;16.10;83.70;;;;;;5005385;28;20050;-92
2021/09/27 11:57:36;;;;;;;22.20;2.78;;;16.00;83.80;;;;;;5002051;28;20109;-90
2021/09/27 12:00:11;;;;;;;18.88;2.65;;;16.10;84.00;;;;;;4995448;28;20050;-90
2021/09/27 12:02:59;;;;;;;19.05;2.65;;;16.00;84.20;;;;;;4994084;28;20050;-93
2021/09/27 12:05:35;;;;;;;20.40;2.60;;;16.10;84.30;;;;;;4993195;28;20046;-91
2021/09/27 12:08:09;;;;;;;19.80;2.60;;;16.10;84.50;;;;;;5009610;28;20092;-92
2021/09/27 12:10:46;;;;;;;21.00;3.05;;;16.20;84.50;;;;;;4996103;28;20050;-90
2021/09/27 12:13:19;;;;;;;28.40;3.05;;;16.30;84.60;;;;;;4996716;28;20049;-90
2021/09/27 12:15:56;;;;;;;21.40;2.50;;;16.30;84.70;;;;;;4995549;28;20100;-88
2021/09/27 12:18:45;;;;;;;15.68;2.60;;;16.40;84.60;;;;;;4995915;28;20117;-88
2021/09/27 12:21:37;;;;;;;12.77;2.20;;;16.40;83.90;;;;;;4995204;28;20097;-91
2021/09/27 12:24:12;;;;;;;13.77;2.38;;;16.40;83.60;;;;;;4995401;28;20043;-89
2021/09/27 12:26:52;;;;;;;15.80;2.60;;;16.40;82.20;;;;;;5003697;28;20148;-90
2021/09/27 12:29:26;;;;;;;15.13;2.53;;;16.40;82.00;;;;;;4992904;28;20463;-90
2021/09/27 12:31:58;;;;;;;11.98;2.17;;;16.40;80.90;;;;;;4993557;28;20050;-90
2021/09/27 12:34:32;;;;;;;10.88;2.45;;;16.50;80.70;;;;;;4991167;28;20053;-90
2021/09/27 12:36:59;;;;;;;14.68;2.83;;;16.50;80.70;;;;;;4995701;28;20100;-90
2021/09/27 12:39:30;;;;;;;14.32;2.20;;;16.50;79.00;;;;;;4995981;28;20054;-92
2021/09/27 12:42:00;;;;;;;20.45;2.40;;;16.50;78.90;;;;;;4996121;28;20045;-94
2021/09/27 12:44:31;;;;;;;17.55;2.25;;;16.60;79.40;;;;;;4994110;28;20092;-89
2021/09/27 12:47:03;;;;;;;14.02;2.15;;;16.60;78.80;;;;;;5009322;28;20053;-90
2021/09/27 12:49:55;;;;;;;11.63;1.80;;;16.70;78.50;;;;;;4999465;28;20107;-91
2021/09/27 12:52:34;;;;;;;17.05;2.28;;;16.80;78.40;;;;;;5001266;28;20096;-90
2021/09/27 12:55:06;;;;;;;10.45;2.15;;;16.90;78.60;;;;;;4999357;28;20093;-91
2021/09/27 12:57:40;;;;;;;10.23;1.80;;;17.00;77.50;;;;;;5003352;28;20050;-91
2021/09/27 13:00:18;;;;;;;10.10;2.25;;;17.10;75.80;;;;;;5008469;28;20054;-92
2021/09/27 13:02:47;;;;;;;15.48;1.73;;;17.30;75.40;;;;;;5010147;28;20502;-91
2021/09/27 13:06:11;;;;;;;9.93;1.92;;;17.40;74.70;;;;;;4995095;28;20050;-90
2021/09/27 13:08:44;;;;;;;10.73;2.67;;;17.50;74.40;;;;;;4934151;29;20123;-90
2021/09/27 13:11:21;;;;;;;;;;;17.70;74.10;;;;;;4919611;29;20151;-90
2021/09/27 13:14:08;;;;;;;16.48;1.73;;;17.90;72.20;;;;;;4931272;29;20391;-91
2021/09/27 13:16:40;;;;;;;12.60;1.90;;;18.00;72.90;;;;;;4935728;29;20051;-92
2021/09/27 13:19:10;;;;;;;9.68;1.67;;;18.10;70.50;;;;;;4936286;29;20051;-90
2021/09/27 13:21:46;;;;;;;12.80;2.28;;;18.10;70.60;;;;;;4930042;29;20135;-92
2021/09/27 13:24:20;;;;;;;9.63;2.03;;;18.30;70.80;;;;;;4919646;29;20059;-91
2021/09/27 13:27:04;;;;;;;17.63;2.25;;;18.30;70.30;;;;;;4923009;29;20087;-90
2021/09/27 13:29:45;;;;;;;8.52;1.70;;;18.30;68.80;;;;;;4918101;29;20044;-87
2021/09/27 13:32:18;;;;;;;5.93;1.23;;;18.20;68.90;;;;;;4933304;29;20093;-93